Xuwen, China
Current Conditions -  °F | °C
As of 7:00 AM on Wednesday 26 Nov 2014 (Local Time) from ZJHK Reporting Station
Clear Clear  
Wind Chill: 70°   Ceiling: Unl
Heat Index: 70°   Visibility: 5mi
Dew Point: 68°   Wind: 2mph
Humidity: 94%   Direction: 30°NNE
Pressure: 29.88"   Gusts: NA
Location:  20.33°N, 110.15°E
Report Text: ZJHK 252300Z 03001MPS 8000 NSC 21/20 Q1012 NOSIG
Loading
Personal Weather Stations






























Interactive Weather Map New forecast layout! Learn more

10-Day Weather Forecast

Advertisements
Track Severe Weather on mobile